createdAt,value
2023-05-06T00:01:26.309Z,11.10
2023-05-06T00:03:54.695Z,10.10
2023-05-06T00:06:23.444Z,10.30
2023-05-06T00:08:53.145Z,10.10
2023-05-06T00:11:23.709Z,9.60
2023-05-06T00:16:23.331Z,9.90
2023-05-06T00:18:56.422Z,10.50
2023-05-06T00:21:24.624Z,10.30
2023-05-06T00:23:52.855Z,10.60
2023-05-06T00:26:21.126Z,10.50
2023-05-06T00:28:49.554Z,10.60
2023-05-06T00:31:17.945Z,10.40
2023-05-06T00:33:48.395Z,10.60
2023-05-06T00:36:16.651Z,11.00
2023-05-06T00:38:44.925Z,11.10
2023-05-06T00:41:17.135Z,11.50
2023-05-06T00:43:45.802Z,11.20
2023-05-06T00:46:16.402Z,10.50
2023-05-06T00:51:13.501Z,11.40
2023-05-06T00:53:41.743Z,11.70
2023-05-06T00:56:09.887Z,10.70
2023-05-06T00:58:39.078Z,10.80
2023-05-06T01:01:08.606Z,11.00
2023-05-06T01:03:38.243Z,11.60
2023-05-06T01:06:19.511Z,11.20
2023-05-06T01:09:01.905Z,11.40
2023-05-06T01:11:42.184Z,10.90
2023-05-06T01:14:41.690Z,11.10
2023-05-06T01:17:12.914Z,11.40
2023-05-06T01:19:56.859Z,10.40
2023-05-06T01:22:27.149Z,11.40
2023-05-06T01:24:55.333Z,11.10
2023-05-06T01:27:23.431Z,11.30
2023-05-06T01:29:54.939Z,11.70
2023-05-06T01:32:44.930Z,11.30
2023-05-06T01:35:19.339Z,10.80
2023-05-06T01:38:29.324Z,10.80
2023-05-06T01:41:01.615Z,11.00
2023-05-06T01:43:40.700Z,11.20
2023-05-06T01:46:31.480Z,9.40
2023-05-06T01:49:08.261Z,9.90
2023-05-06T01:51:36.433Z,9.90
2023-05-06T01:54:05.095Z,9.60
2023-05-06T01:56:34.728Z,10.60
2023-05-06T01:59:03.147Z,9.30
2023-05-06T02:01:32.086Z,9.50
2023-05-06T02:04:01.792Z,10.10
2023-05-06T02:06:30.432Z,10.00
2023-05-06T02:08:58.586Z,9.70
2023-05-06T02:11:34.809Z,9.90
2023-05-06T02:14:07.217Z,10.10
2023-05-06T02:19:06.154Z,9.10
2023-05-06T02:21:34.632Z,10.70
2023-05-06T02:24:02.951Z,10.60
2023-05-06T02:26:31.259Z,10.00
2023-05-06T02:28:59.536Z,10.40
2023-05-06T02:31:30.394Z,9.90
2023-05-06T02:33:58.795Z,9.70
2023-05-06T02:36:27.862Z,9.90
2023-05-06T02:38:56.148Z,8.80
2023-05-06T02:41:24.470Z,9.30
2023-05-06T02:43:53.766Z,8.80
2023-05-06T02:46:22.036Z,9.10
2023-05-06T02:48:50.331Z,9.30
2023-05-06T02:51:18.607Z,9.10
2023-05-06T02:53:46.850Z,9.40
2023-05-06T02:56:15.098Z,8.50
2023-05-06T02:58:43.401Z,8.90
2023-05-06T03:01:14.278Z,9.00
2023-05-06T03:03:42.698Z,8.20
2023-05-06T03:06:13.389Z,9.20
2023-05-06T03:08:56.052Z,8.60
2023-05-06T03:11:25.864Z,8.00
2023-05-06T03:13:54.065Z,9.10
2023-05-06T03:16:22.274Z,8.50
2023-05-06T03:18:56.835Z,8.20
2023-05-06T03:21:27.057Z,7.80
2023-05-06T03:23:55.292Z,8.20
2023-05-06T03:26:26.793Z,8.50
